createdAt,value
2018-05-24T00:00:43.992Z,4.80
2018-05-24T00:01:48.364Z,5.37
2018-05-24T00:02:53.426Z,5.28
2018-05-24T00:03:57.785Z,5.15
2018-05-24T00:05:02.132Z,5.20
2018-05-24T00:06:06.811Z,4.47
2018-05-24T00:07:11.620Z,5.40
2018-05-24T00:08:15.930Z,4.72
2018-05-24T00:09:20.921Z,4.68
2018-05-24T00:10:25.133Z,5.10
2018-05-24T00:11:29.359Z,5.05
2018-05-24T00:12:34.042Z,5.18
2018-05-24T00:13:38.270Z,4.53
2018-05-24T00:14:42.352Z,4.70
2018-05-24T00:15:46.377Z,4.55
2018-05-24T00:16:50.566Z,4.95
2018-05-24T00:17:54.591Z,4.35
2018-05-24T00:18:58.669Z,5.25
2018-05-24T00:20:02.719Z,4.60
2018-05-24T00:21:07.666Z,4.90
2018-05-24T00:22:11.725Z,4.37
2018-05-24T00:23:15.794Z,5.12
2018-05-24T00:24:19.879Z,4.75
2018-05-24T00:25:24.731Z,4.57
2018-05-24T00:26:28.830Z,5.10
2018-05-24T00:27:32.958Z,4.78
2018-05-24T00:28:37.077Z,4.47
2018-05-24T00:29:41.979Z,4.70
2018-05-24T00:30:46.215Z,5.53
2018-05-24T00:31:51.209Z,4.82
2018-05-24T00:32:55.413Z,4.93
2018-05-24T00:33:59.670Z,4.75
2018-05-24T00:35:04.030Z,4.30
2018-05-24T00:36:09.303Z,5.40
2018-05-24T00:37:13.518Z,4.60
2018-05-24T00:38:17.757Z,4.60
2018-05-24T00:39:21.862Z,5.10
2018-05-24T00:40:26.090Z,4.57
2018-05-24T00:41:30.917Z,4.90
2018-05-24T00:42:36.048Z,4.95
2018-05-24T00:43:40.228Z,5.20
2018-05-24T00:44:44.460Z,4.90
2018-05-24T00:45:48.596Z,5.05
2018-05-24T00:46:52.735Z,4.75
2018-05-24T00:47:56.802Z,4.45
2018-05-24T00:49:01.278Z,4.75
2018-05-24T00:50:05.390Z,5.32
2018-05-24T00:51:09.448Z,4.97
2018-05-24T00:52:13.548Z,4.90
2018-05-24T00:53:17.570Z,5.55
2018-05-24T00:54:22.658Z,5.30
2018-05-24T00:55:45.203Z,4.55
2018-05-24T00:56:49.243Z,4.55
2018-05-24T00:57:53.386Z,4.65
2018-05-24T00:58:57.477Z,4.97
2018-05-24T01:00:01.535Z,4.25
2018-05-24T01:01:05.914Z,4.35
2018-05-24T01:02:10.132Z,5.12
2018-05-24T01:03:14.364Z,4.43
2018-05-24T01:04:19.302Z,4.78
2018-05-24T01:05:23.570Z,4.30
2018-05-24T01:06:27.761Z,4.60
2018-05-24T01:07:31.984Z,4.85
2018-05-24T01:08:36.199Z,4.35
2018-05-24T01:09:41.187Z,4.87
2018-05-24T01:10:45.383Z,4.50
2018-05-24T01:11:49.575Z,4.53
2018-05-24T01:12:54.040Z,5.07
2018-05-24T01:13:58.235Z,4.68
2018-05-24T01:15:02.430Z,4.47
2018-05-24T01:16:06.646Z,4.72
2018-05-24T01:17:10.874Z,4.82
2018-05-24T01:18:15.144Z,4.57
2018-05-24T01:19:19.673Z,5.12
2018-05-24T01:20:23.727Z,4.40
2018-05-24T01:21:27.795Z,4.65
2018-05-24T01:22:32.622Z,4.95
2018-05-24T01:23:36.666Z,4.90
2018-05-24T01:24:40.727Z,4.25
2018-05-24T01:25:45.182Z,4.70
2018-05-24T01:26:49.286Z,4.78
2018-05-24T01:27:53.340Z,4.03
2018-05-24T01:28:57.354Z,4.53
2018-05-24T01:30:01.394Z,4.12
2018-05-24T01:31:05.447Z,5.37
2018-05-24T01:32:09.511Z,4.75
2018-05-24T01:33:13.627Z,4.80
2018-05-24T01:34:18.442Z,5.12
2018-05-24T01:35:23.274Z,4.00
2018-05-24T01:36:36.934Z,3.83
2018-05-24T01:37:50.730Z,4.72
2018-05-24T01:38:55.747Z,4.40
2018-05-24T01:40:00.694Z,4.57
2018-05-24T01:41:04.936Z,4.47
2018-05-24T01:42:09.165Z,4.45
2018-05-24T01:43:13.382Z,4.50
2018-05-24T01:44:17.633Z,4.57
2018-05-24T01:45:21.849Z,4.05
2018-05-24T01:46:26.071Z,4.03
2018-05-24T01:47:30.280Z,4.82
2018-05-24T01:48:34.486Z,4.72
2018-05-24T01:49:38.720Z,3.85
2018-05-24T01:50:43.814Z,4.50
2018-05-24T01:51:47.879Z,4.35
2018-05-24T01:52:51.926Z,4.37
2018-05-24T01:53:55.979Z,4.50
2018-05-24T01:55:00.046Z,4.40
2018-05-24T01:56:04.902Z,4.40
2018-05-24T01:57:09.493Z,4.40
2018-05-24T01:58:14.487Z,4.12
2018-05-24T01:59:18.687Z,5.30
2018-05-24T02:00:22.923Z,4.45
2018-05-24T02:01:27.918Z,4.05
2018-05-24T02:02:32.229Z,4.30
2018-05-24T02:03:36.758Z,4.20
2018-05-24T02:04:41.822Z,4.25
2018-05-24T02:05:46.731Z,4.35
2018-05-24T02:06:50.802Z,4.07
2018-05-24T02:07:54.866Z,4.43
2018-05-24T02:08:59.250Z,4.40
2018-05-24T02:10:03.318Z,4.53
2018-05-24T02:11:08.160Z,3.95
2018-05-24T02:12:12.264Z,4.15
2018-05-24T02:13:16.311Z,4.22
2018-05-24T02:14:20.372Z,4.50
2018-05-24T02:15:24.845Z,4.60
2018-05-24T02:16:28.918Z,3.87
2018-05-24T02:17:32.946Z,4.55
2018-05-24T02:18:37.003Z,4.40
2018-05-24T02:19:41.050Z,4.10
2018-05-24T02:20:45.102Z,3.90
2018-05-24T02:21:49.434Z,4.62
2018-05-24T02:22:53.502Z,4.55
2018-05-24T02:23:57.585Z,4.55
2018-05-24T02:25:02.465Z,4.60
2018-05-24T02:26:06.283Z,4.37
2018-05-24T02:27:11.563Z,4.30
2018-05-24T02:28:15.844Z,3.67
2018-05-24T02:29:20.062Z,4.40
2018-05-24T02:30:24.287Z,4.50
2018-05-24T02:31:28.863Z,4.15
2018-05-24T02:32:33.819Z,4.00
2018-05-24T02:33:38.302Z,3.92
2018-05-24T02:34:42.564Z,3.65
2018-05-24T02:35:46.843Z,4.00
2018-05-24T02:36:51.419Z,3.53
2018-05-24T02:37:56.379Z,4.25
2018-05-24T02:39:01.354Z,4.60
2018-05-24T02:40:06.595Z,3.90
2018-05-24T02:41:11.583Z,4.62
2018-05-24T02:42:15.799Z,3.80
2018-05-24T02:43:20.062Z,4.25
2018-05-24T02:44:24.262Z,4.78
2018-05-24T02:45:28.567Z,3.42
2018-05-24T02:46:32.631Z,3.67
2018-05-24T02:47:37.426Z,4.25
2018-05-24T02:48:41.519Z,4.43
2018-05-24T02:49:45.902Z,4.18
2018-05-24T02:52:48.051Z,4.00
2018-05-24T02:53:52.106Z,4.25
2018-05-24T02:54:56.174Z,3.92
2018-05-24T02:56:00.256Z,4.00
2018-05-24T02:57:04.355Z,3.55
2018-05-24T02:58:08.363Z,3.62
2018-05-24T02:59:12.763Z,4.25
2018-05-24T03:00:16.818Z,3.00
2018-05-24T03:01:20.916Z,3.92
2018-05-24T03:02:25.004Z,3.92
2018-05-24T03:03:29.183Z,3.55
2018-05-24T03:04:33.262Z,3.95
2018-05-24T03:05:38.755Z,3.33
2018-05-24T03:06:43.062Z,3.90
2018-05-24T03:07:47.159Z,3.83
2018-05-24T03:08:51.235Z,3.65
2018-05-24T03:09:55.272Z,3.92
2018-05-24T03:10:59.360Z,4.57
2018-05-24T03:12:04.288Z,4.20
2018-05-24T03:13:08.698Z,3.80
2018-05-24T03:14:14.168Z,3.53
2018-05-24T03:15:19.159Z,3.70
2018-05-24T03:16:23.377Z,3.95
2018-05-24T03:17:27.687Z,4.10
2018-05-24T03:18:31.945Z,3.00
2018-05-24T03:19:37.019Z,3.60
2018-05-24T03:20:42.062Z,3.85
2018-05-24T03:21:46.599Z,4.18
2018-05-24T03:22:50.947Z,3.70
2018-05-24T03:23:55.187Z,3.67
2018-05-24T03:25:00.235Z,3.87
2018-05-24T03:26:04.460Z,3.95
2018-05-24T03:27:08.709Z,3.55
2018-05-24T03:28:12.915Z,3.72
2018-05-24T03:29:17.168Z,3.87
2018-05-24T03:30:21.374Z,3.90
2018-05-24T03:31:25.614Z,3.87
2018-05-24T03:32:29.830Z,3.35
2018-05-24T03:33:33.927Z,4.70
2018-05-24T03:34:38.258Z,3.50
2018-05-24T03:35:43.076Z,3.80
2018-05-24T03:36:47.894Z,4.03
2018-05-24T03:37:52.759Z,3.75
2018-05-24T03:38:56.811Z,3.45
2018-05-24T03:40:01.949Z,3.72
2018-05-24T03:41:06.800Z,3.70
2018-05-24T03:42:10.919Z,4.22
2018-05-24T03:43:14.986Z,3.50
2018-05-24T03:44:19.041Z,4.65
2018-05-24T03:45:23.071Z,3.87
2018-05-24T03:46:32.231Z,3.70
2018-05-24T03:47:36.335Z,4.50
2018-05-24T03:48:40.491Z,3.90
2018-05-24T03:49:44.743Z,3.87
2018-05-24T03:50:48.941Z,3.42
2018-05-24T03:51:53.164Z,3.75
2018-05-24T03:52:57.401Z,4.45
2018-05-24T03:54:01.587Z,2.83
2018-05-24T03:55:05.774Z,4.45
2018-05-24T03:56:10.000Z,3.72
2018-05-24T03:57:14.530Z,3.50
2018-05-24T03:58:19.498Z,4.03
2018-05-24T03:59:31.503Z,3.80
2018-05-24T04:00:46.615Z,4.03
2018-05-24T04:04:06.227Z,3.45
2018-05-24T04:05:10.304Z,4.10
2018-05-24T04:06:15.122Z,3.33
2018-05-24T04:07:19.923Z,3.70
2018-05-24T04:08:23.979Z,3.35
2018-05-24T04:09:28.192Z,3.15
2018-05-24T04:10:32.446Z,4.18
2018-05-24T04:11:37.430Z,3.65
2018-05-24T04:12:41.647Z,3.62
2018-05-24T04:13:45.943Z,3.62
2018-05-24T04:14:50.263Z,3.75
2018-05-24T04:15:54.563Z,4.12
2018-05-24T04:16:59.071Z,3.25
2018-05-24T04:18:03.306Z,3.83
2018-05-24T04:19:07.604Z,3.25
2018-05-24T04:20:11.823Z,4.03
2018-05-24T04:21:16.028Z,3.47
2018-05-24T04:22:21.330Z,3.85
2018-05-24T04:23:25.527Z,3.17
2018-05-24T04:24:29.732Z,3.58
2018-05-24T04:25:33.987Z,3.90
2018-05-24T04:26:38.972Z,3.55
2018-05-24T04:27:43.179Z,3.75
2018-05-24T04:28:47.383Z,3.95
2018-05-24T04:29:51.587Z,3.50
2018-05-24T04:30:56.155Z,3.90
2018-05-24T04:32:00.436Z,3.33
2018-05-24T04:33:05.429Z,3.60
2018-05-24T04:34:10.486Z,3.55
2018-05-24T04:35:15.727Z,3.50
2018-05-24T04:36:20.766Z,4.07
2018-05-24T04:37:24.938Z,3.35
2018-05-24T04:38:29.765Z,3.72
2018-05-24T04:39:34.707Z,3.50
2018-05-24T04:40:39.051Z,3.40
2018-05-24T04:41:43.119Z,4.03
2018-05-24T04:42:47.165Z,3.10
2018-05-24T04:43:51.215Z,3.35
2018-05-24T04:44:55.310Z,3.37
2018-05-24T04:46:00.128Z,3.25
2018-05-24T04:47:05.136Z,4.03
2018-05-24T04:48:10.147Z,3.40
2018-05-24T04:49:14.290Z,3.72
2018-05-24T04:50:18.393Z,3.00
2018-05-24T04:51:22.481Z,3.85
2018-05-24T04:52:27.306Z,3.70
2018-05-24T04:53:31.377Z,3.90
2018-05-24T04:54:35.431Z,3.40
2018-05-24T04:55:39.490Z,3.75
2018-05-24T04:56:43.514Z,4.22
2018-05-24T04:57:47.862Z,4.00
2018-05-24T04:58:51.990Z,3.78
2018-05-24T04:59:56.235Z,4.00
2018-05-24T05:01:00.459Z,3.35
2018-05-24T05:02:04.708Z,4.28
2018-05-24T05:03:08.927Z,3.30
2018-05-24T05:04:14.194Z,3.95
2018-05-24T05:05:18.483Z,3.53
2018-05-24T05:06:22.663Z,3.28
2018-05-24T05:07:26.851Z,4.22
2018-05-24T05:08:31.067Z,3.10
2018-05-24T05:10:37.607Z,3.70
2018-05-24T05:11:41.822Z,4.60
2018-05-24T05:15:56.771Z,3.67
2018-05-24T05:17:01.075Z,3.60
2018-05-24T05:18:05.319Z,3.83
2018-05-24T05:19:09.614Z,3.45
2018-05-24T05:20:13.833Z,3.50
2018-05-24T05:21:18.035Z,3.85
2018-05-24T05:22:22.539Z,4.07
2018-05-24T05:23:26.840Z,3.42
2018-05-24T05:24:31.069Z,3.47
2018-05-24T05:25:35.275Z,3.90
2018-05-24T05:26:39.541Z,3.75
2018-05-24T05:27:43.843Z,3.28
2018-05-24T05:28:48.050Z,3.95
2018-05-24T05:29:52.328Z,3.15
2018-05-24T05:30:56.620Z,3.55
2018-05-24T05:32:01.677Z,3.35
2018-05-24T05:33:05.899Z,3.40
2018-05-24T05:34:10.411Z,3.72
2018-05-24T05:35:14.650Z,3.20
2018-05-24T05:36:19.622Z,3.53
2018-05-24T05:37:23.843Z,3.00
2018-05-24T05:38:28.042Z,3.28
2018-05-24T05:39:32.243Z,4.07
2018-05-24T05:40:36.470Z,3.80
2018-05-24T05:41:40.711Z,3.50
2018-05-24T05:42:45.682Z,3.85
2018-05-24T05:43:49.892Z,4.20
2018-05-24T05:44:54.152Z,3.72
2018-05-24T05:45:58.699Z,3.50
2018-05-24T05:47:02.927Z,3.45
2018-05-24T05:48:07.136Z,3.25
2018-05-24T05:49:11.306Z,3.70
2018-05-24T05:50:15.518Z,3.72
2018-05-24T05:51:19.792Z,3.67
2018-05-24T05:52:25.043Z,3.53
2018-05-24T05:53:29.275Z,3.35
2018-05-24T05:54:33.603Z,2.95
2018-05-24T05:55:37.789Z,4.40
2018-05-24T05:56:42.090Z,3.62
2018-05-24T05:57:46.283Z,3.65
2018-05-24T05:58:50.783Z,3.65
2018-05-24T05:59:55.784Z,3.10
2018-05-24T06:01:00.953Z,3.00
2018-05-24T06:02:05.047Z,3.30
2018-05-24T06:03:09.109Z,3.47
2018-05-24T06:04:14.203Z,3.35
2018-05-24T06:05:18.249Z,4.00
2018-05-24T06:06:22.316Z,3.85
2018-05-24T06:07:26.586Z,3.65
2018-05-24T06:08:30.666Z,3.50
2018-05-24T06:09:34.719Z,3.20
2018-05-24T06:10:39.092Z,3.67
2018-05-24T06:11:43.150Z,4.32
2018-05-24T06:12:47.219Z,3.55
2018-05-24T06:13:51.372Z,4.07
2018-05-24T06:14:56.251Z,3.40
2018-05-24T06:16:00.324Z,3.90
2018-05-24T06:17:04.771Z,3.83
2018-05-24T06:18:08.871Z,3.67
2018-05-24T06:19:12.939Z,3.53
2018-05-24T06:20:16.988Z,3.30
2018-05-24T06:21:21.043Z,3.65
2018-05-24T06:22:25.390Z,3.83
2018-05-24T06:23:29.430Z,3.60
2018-05-24T06:24:34.257Z,3.15
2018-05-24T06:25:38.350Z,3.35
2018-05-24T06:26:42.411Z,3.40
2018-05-24T06:27:46.464Z,3.30
2018-05-24T06:28:50.843Z,3.87
2018-05-24T06:29:55.732Z,3.45
2018-05-24T06:30:59.779Z,3.22
2018-05-24T06:32:04.678Z,3.80
2018-05-24T06:33:09.474Z,3.25
2018-05-24T06:34:13.595Z,4.05
2018-05-24T06:35:17.994Z,3.85
2018-05-24T06:36:22.059Z,3.90
2018-05-24T06:37:26.110Z,2.90
2018-05-24T06:38:30.191Z,3.72
2018-05-24T06:39:34.259Z,3.10
2018-05-24T06:40:38.669Z,3.45
2018-05-24T06:41:43.667Z,3.78
2018-05-24T06:42:48.667Z,3.58
2018-05-24T06:43:52.902Z,3.33
2018-05-24T06:44:57.208Z,3.60
2018-05-24T06:46:01.510Z,3.65
2018-05-24T06:47:06.032Z,3.33
2018-05-24T06:48:10.288Z,3.65
2018-05-24T06:49:14.503Z,3.67
2018-05-24T06:50:18.834Z,3.90
2018-05-24T06:51:23.876Z,3.35
2018-05-24T06:52:28.171Z,3.72
2018-05-24T06:53:33.023Z,3.28
2018-05-24T06:54:37.857Z,3.97
2018-05-24T06:55:42.711Z,4.10
2018-05-24T06:56:46.833Z,3.12
2018-05-24T06:57:51.654Z,4.03
2018-05-24T06:58:55.998Z,3.92
2018-05-24T07:00:00.252Z,4.32
2018-05-24T07:01:04.436Z,3.90
2018-05-24T07:02:08.525Z,3.80
2018-05-24T07:03:12.743Z,3.95
2018-05-24T07:04:16.973Z,3.60
2018-05-24T07:05:22.262Z,3.50
2018-05-24T07:06:26.485Z,3.53
2018-05-24T07:07:30.626Z,3.30
2018-05-24T07:08:34.679Z,3.45
2018-05-24T07:09:38.816Z,4.03
2018-05-24T07:10:43.788Z,3.85
2018-05-24T07:11:47.965Z,4.03
2018-05-24T07:12:52.030Z,4.07
2018-05-24T07:13:56.091Z,3.45
2018-05-24T07:15:00.914Z,3.60
2018-05-24T07:16:05.043Z,4.00
2018-05-24T07:17:09.382Z,3.40
2018-05-24T07:18:14.249Z,3.50
2018-05-24T07:19:18.363Z,3.20
2018-05-24T07:20:22.531Z,3.40
2018-05-24T07:21:26.729Z,3.12
2018-05-24T07:22:31.024Z,3.70
2018-05-24T07:23:36.332Z,3.47
2018-05-24T07:24:40.620Z,3.40
2018-05-24T07:25:44.783Z,3.50
2018-05-24T07:26:48.858Z,3.45
2018-05-24T07:27:53.679Z,3.25
2018-05-24T07:28:58.491Z,3.30
2018-05-24T07:30:03.493Z,3.37
2018-05-24T07:31:07.719Z,3.50
2018-05-24T07:32:11.918Z,3.42
2018-05-24T07:33:16.227Z,3.08
2018-05-24T07:34:21.520Z,3.80
2018-05-24T07:35:25.718Z,4.60
2018-05-24T07:36:30.015Z,3.97
2018-05-24T07:37:34.324Z,3.62
2018-05-24T07:38:38.563Z,3.35
2018-05-24T07:39:42.832Z,3.70
2018-05-24T07:40:47.147Z,3.58
2018-05-24T07:41:51.387Z,3.10
2018-05-24T07:42:55.690Z,3.60
2018-05-24T07:44:00.017Z,3.90
2018-05-24T07:45:05.053Z,4.40
2018-05-24T07:46:09.323Z,3.12
2018-05-24T07:47:13.558Z,3.92
2018-05-24T07:48:18.588Z,3.50
2018-05-24T07:49:23.708Z,3.85
2018-05-24T07:50:28.729Z,4.35
2018-05-24T07:51:33.075Z,3.40
2018-05-24T07:52:37.127Z,3.30
2018-05-24T07:53:41.191Z,4.10
2018-05-24T07:54:45.299Z,3.25
2018-05-24T07:55:49.382Z,3.80
2018-05-24T07:56:53.423Z,3.92
2018-05-24T07:57:57.779Z,3.67
2018-05-24T07:59:01.870Z,3.55
2018-05-24T08:00:06.728Z,4.00
2018-05-24T08:01:10.820Z,3.10
2018-05-24T08:02:14.906Z,3.80
2018-05-24T08:03:19.251Z,3.08
2018-05-24T08:04:23.315Z,3.92
2018-05-24T08:05:27.415Z,4.10
2018-05-24T08:06:31.479Z,4.25
2018-05-24T08:07:35.620Z,3.58
2018-05-24T08:08:39.688Z,3.60
2018-05-24T08:09:44.011Z,4.07
2018-05-24T08:10:48.992Z,3.40
2018-05-24T08:11:53.190Z,3.70
2018-05-24T08:12:57.438Z,3.10
2018-05-24T08:14:01.634Z,3.65
2018-05-24T08:15:06.654Z,3.37
2018-05-24T08:16:11.214Z,3.53
2018-05-24T08:17:15.474Z,3.90
2018-05-24T08:18:19.768Z,3.67
2018-05-24T08:19:23.963Z,3.90
2018-05-24T08:20:28.255Z,3.90
2018-05-24T08:21:32.488Z,3.03
2018-05-24T08:22:36.817Z,3.85
2018-05-24T08:23:41.107Z,3.67
2018-05-24T08:24:45.357Z,3.87
2018-05-24T08:25:49.585Z,3.10
2018-05-24T08:26:53.806Z,3.75
2018-05-24T08:27:58.027Z,2.90
2018-05-24T08:29:02.366Z,3.75
2018-05-24T08:30:07.291Z,3.35
2018-05-24T08:31:12.112Z,4.40
2018-05-24T08:32:16.913Z,3.35
2018-05-24T08:33:20.975Z,3.03
2018-05-24T08:34:25.312Z,3.40
2018-05-24T08:35:29.427Z,3.83
2018-05-24T08:36:33.882Z,3.80
2018-05-24T08:37:38.351Z,3.97
2018-05-24T08:38:43.480Z,3.53
2018-05-24T08:39:48.542Z,3.67
2018-05-24T08:40:53.401Z,3.50
2018-05-24T08:41:57.491Z,3.45
2018-05-24T08:43:01.550Z,4.30
2018-05-24T08:44:05.667Z,4.05
2018-05-24T08:45:09.766Z,3.67
2018-05-24T08:46:14.082Z,3.62
2018-05-24T08:47:18.920Z,4.62
2018-05-24T08:48:23.074Z,4.32
2018-05-24T08:49:27.904Z,3.75
2018-05-24T08:50:31.993Z,3.78
2018-05-24T08:51:36.051Z,3.40
2018-05-24T08:52:40.171Z,3.70
2018-05-24T08:53:44.287Z,3.75
2018-05-24T08:54:48.368Z,4.45
2018-05-24T08:55:52.538Z,3.90
2018-05-24T08:56:57.511Z,3.55
2018-05-24T08:58:01.879Z,4.10
2018-05-24T08:59:05.935Z,4.53
2018-05-24T09:00:10.789Z,3.60
2018-05-24T09:01:14.941Z,3.85
2018-05-24T09:02:18.971Z,3.75
2018-05-24T09:03:23.855Z,4.47
2018-05-24T09:08:21.954Z,3.60
2018-05-24T09:09:27.481Z,4.05
2018-05-24T09:10:32.230Z,4.05
2018-05-24T09:11:36.915Z,4.03
2018-05-24T09:12:43.387Z,4.72
2018-05-24T09:13:48.908Z,3.75
2018-05-24T09:14:54.053Z,4.15
2018-05-24T09:16:02.762Z,4.15
2018-05-24T09:17:08.315Z,4.22
2018-05-24T09:18:13.524Z,5.07
2018-05-24T09:19:18.503Z,4.47
2018-05-24T09:20:23.307Z,4.45
2018-05-24T09:21:28.239Z,3.80
2018-05-24T09:22:32.957Z,4.12
2018-05-24T09:23:37.662Z,3.90
2018-05-24T09:24:42.388Z,4.00
2018-05-24T09:25:47.939Z,4.05
2018-05-24T09:26:52.639Z,4.35
2018-05-24T09:27:57.377Z,4.90
2018-05-24T09:29:02.043Z,4.50
2018-05-24T09:30:06.835Z,4.32
2018-05-24T09:31:12.288Z,3.97
2018-05-24T09:32:17.802Z,4.28
2018-05-24T09:33:22.466Z,4.40
2018-05-24T09:34:27.176Z,4.00
2018-05-24T09:35:31.914Z,4.28
2018-05-24T09:36:36.738Z,4.53
2018-05-24T09:37:41.496Z,4.25
2018-05-24T09:38:46.965Z,4.30
2018-05-24T09:39:52.790Z,4.20
2018-05-24T09:40:57.461Z,4.37
2018-05-24T09:42:02.937Z,4.20
2018-05-24T09:43:08.612Z,4.32
2018-05-24T09:44:13.638Z,4.30
2018-05-24T09:45:19.111Z,4.55
2018-05-24T09:46:23.835Z,4.30
2018-05-24T09:47:28.539Z,4.10
2018-05-24T09:48:33.235Z,5.78
2018-05-24T09:49:38.923Z,4.65
2018-05-24T09:50:45.198Z,4.90
2018-05-24T09:51:49.931Z,4.57
2018-05-24T09:52:54.724Z,4.75
2018-05-24T09:54:00.085Z,5.03
2018-05-24T09:55:04.830Z,5.12
2018-05-24T09:56:10.078Z,5.10
2018-05-24T09:57:15.678Z,5.15
2018-05-24T09:58:21.306Z,5.72
2018-05-24T09:59:28.116Z,4.68
2018-05-24T10:00:34.658Z,5.05
2018-05-24T10:01:47.291Z,4.90
2018-05-24T10:02:53.480Z,6.25
2018-05-24T10:04:00.118Z,5.55
2018-05-24T10:05:06.777Z,6.10
2018-05-24T10:06:14.251Z,5.40
2018-05-24T10:07:22.216Z,6.25
2018-05-24T10:08:27.948Z,4.75
2018-05-24T10:09:33.606Z,5.85
2018-05-24T10:10:41.958Z,6.00
2018-05-24T10:11:48.617Z,5.30
2018-05-24T10:12:55.470Z,6.20
2018-05-24T10:14:09.833Z,5.50
2018-05-24T10:15:16.889Z,6.75
2018-05-24T10:16:24.153Z,6.40
2018-05-24T10:17:30.116Z,4.90
2018-05-24T10:18:35.964Z,5.25
2018-05-24T10:19:42.000Z,5.97
2018-05-24T10:20:47.788Z,5.85
2018-05-24T10:21:54.149Z,6.07
2018-05-24T10:22:59.288Z,4.95
2018-05-24T10:24:05.474Z,6.10
2018-05-24T10:25:11.698Z,5.82
2018-05-24T10:26:24.860Z,5.82
2018-05-24T10:27:32.518Z,5.65
2018-05-24T10:28:39.257Z,5.65
2018-05-24T10:29:45.090Z,5.32
2018-05-24T10:30:51.518Z,5.15
2018-05-24T10:31:56.442Z,5.80
2018-05-24T10:33:01.265Z,5.90
2018-05-24T10:34:06.829Z,5.70
2018-05-24T10:35:11.778Z,6.00
2018-05-24T10:36:17.004Z,7.18
2018-05-24T10:37:22.563Z,6.35
2018-05-24T10:38:27.379Z,6.40
2018-05-24T10:39:32.248Z,5.68
2018-05-24T10:40:37.433Z,7.22
2018-05-24T10:41:42.334Z,5.95
2018-05-24T10:42:48.263Z,6.07
2018-05-24T10:43:54.056Z,6.30
2018-05-24T10:44:58.782Z,5.70
2018-05-24T10:46:03.918Z,7.20
2018-05-24T10:47:11.739Z,5.60
2018-05-24T10:48:17.562Z,5.80
2018-05-24T10:49:22.348Z,6.35
2018-05-24T10:50:27.052Z,6.35
2018-05-24T10:51:31.781Z,5.75
2018-05-24T10:52:36.551Z,6.35
2018-05-24T10:53:41.278Z,5.90
2018-05-24T10:54:46.737Z,6.12
2018-05-24T10:55:51.679Z,6.55
2018-05-24T10:56:56.946Z,6.20
2018-05-24T10:58:02.458Z,6.68
2018-05-24T10:59:07.127Z,6.60
2018-05-24T11:00:12.671Z,5.85
2018-05-24T11:01:17.423Z,7.07
2018-05-24T11:02:22.119Z,6.78
2018-05-24T11:03:26.948Z,5.80
2018-05-24T11:04:31.620Z,5.97
2018-05-24T11:05:36.306Z,6.20
2018-05-24T11:06:41.286Z,5.68
2018-05-24T11:07:46.009Z,6.47
2018-05-24T11:08:51.377Z,5.72
2018-05-24T11:09:56.078Z,7.12
2018-05-24T11:11:00.850Z,6.03
2018-05-24T11:12:06.401Z,6.10
2018-05-24T11:13:11.092Z,5.70
2018-05-24T11:14:15.962Z,6.30
2018-05-24T11:15:20.808Z,7.97
2018-05-24T11:16:25.498Z,6.30
2018-05-24T11:17:30.200Z,5.70
2018-05-24T11:18:34.922Z,6.25
2018-05-24T11:19:39.617Z,5.85
2018-05-24T11:20:45.078Z,5.97
2018-05-24T11:21:49.730Z,5.40
2018-05-24T11:22:55.205Z,6.50
2018-05-24T11:24:00.441Z,5.65
2018-05-24T11:25:05.211Z,6.93
2018-05-24T11:26:11.265Z,6.12
2018-05-24T11:27:16.085Z,5.85
2018-05-24T11:28:20.907Z,5.45
2018-05-24T11:29:25.876Z,6.30
2018-05-24T11:30:30.567Z,6.82
2018-05-24T11:31:36.035Z,5.80
2018-05-24T11:32:40.875Z,6.20
2018-05-24T11:33:45.676Z,5.82
2018-05-24T11:34:50.505Z,6.22
2018-05-24T11:35:55.326Z,5.72
2018-05-24T11:37:00.480Z,6.65
2018-05-24T11:38:05.246Z,5.95
2018-05-24T11:39:10.862Z,5.60
2018-05-24T11:40:16.428Z,6.37
2018-05-24T11:41:21.162Z,6.97
2018-05-24T11:42:32.831Z,5.75
2018-05-24T11:43:37.882Z,5.68
2018-05-24T11:44:43.359Z,6.25
2018-05-24T11:45:48.924Z,5.85
2018-05-24T11:46:53.856Z,5.50
2018-05-24T11:47:59.367Z,6.85
2018-05-24T11:49:04.494Z,6.75
2018-05-24T11:50:09.234Z,6.57
2018-05-24T11:51:14.146Z,5.93
2018-05-24T11:52:19.099Z,6.25
2018-05-24T11:53:24.459Z,5.07
2018-05-24T11:54:30.000Z,5.80
2018-05-24T11:55:35.427Z,6.62
2018-05-24T11:56:40.149Z,5.90
2018-05-24T11:57:45.659Z,5.50
2018-05-24T11:58:50.564Z,6.05
2018-05-24T11:59:55.353Z,6.15
2018-05-24T12:01:00.058Z,5.95
2018-05-24T12:02:04.747Z,6.87
2018-05-24T12:03:10.213Z,5.60
2018-05-24T12:04:15.416Z,6.50
2018-05-24T12:05:20.899Z,6.25
2018-05-24T12:06:25.570Z,6.65
2018-05-24T12:07:31.303Z,6.47
2018-05-24T12:08:36.795Z,5.90
2018-05-24T12:09:42.109Z,7.28
2018-05-24T12:10:46.874Z,6.45
2018-05-24T12:11:51.663Z,6.40
2018-05-24T12:12:56.370Z,6.57
2018-05-24T12:14:01.418Z,6.68
2018-05-24T12:15:06.211Z,6.80
2018-05-24T12:16:11.720Z,7.40
2018-05-24T12:17:17.173Z,5.95
2018-05-24T12:18:21.916Z,6.95
2018-05-24T12:19:26.596Z,6.25
2018-05-24T12:20:31.486Z,6.57
2018-05-24T12:21:36.182Z,6.15
2018-05-24T12:22:40.876Z,5.80
2018-05-24T12:23:45.761Z,6.60
2018-05-24T12:24:51.448Z,6.40
2018-05-24T12:25:56.208Z,7.25
2018-05-24T12:27:01.777Z,6.37
2018-05-24T12:28:06.501Z,6.78
2018-05-24T12:29:11.549Z,6.53
2018-05-24T12:30:16.422Z,5.93
2018-05-24T12:31:21.582Z,7.00
2018-05-24T12:32:26.302Z,5.90
2018-05-24T12:33:31.158Z,6.00
2018-05-24T12:34:36.862Z,6.07
2018-05-24T12:35:41.619Z,6.15
2018-05-24T12:36:47.107Z,6.25
2018-05-24T12:37:52.231Z,7.00
2018-05-24T12:38:57.146Z,6.20
2018-05-24T12:40:02.141Z,6.35
2018-05-24T12:41:07.587Z,6.90
2018-05-24T12:42:12.364Z,6.47
2018-05-24T12:43:17.147Z,6.37
2018-05-24T12:44:22.164Z,6.60
2018-05-24T12:45:26.911Z,7.18
2018-05-24T12:46:31.668Z,6.45
2018-05-24T12:47:37.253Z,6.70
2018-05-24T12:48:41.967Z,7.37
2018-05-24T12:49:46.656Z,6.32
2018-05-24T12:50:51.418Z,6.12
2018-05-24T12:51:56.195Z,6.80
2018-05-24T12:53:01.197Z,7.68
2018-05-24T12:54:06.398Z,7.50
2018-05-24T12:55:11.113Z,6.90
2018-05-24T12:56:15.835Z,7.22
2018-05-24T12:57:20.645Z,6.45
2018-05-24T12:58:25.474Z,6.60
2018-05-24T12:59:30.395Z,6.72
2018-05-24T13:00:35.422Z,6.60
2018-05-24T13:01:40.134Z,8.45
2018-05-24T13:02:45.274Z,6.18
2018-05-24T13:03:50.834Z,6.75
2018-05-24T13:04:55.893Z,7.03
2018-05-24T13:06:03.281Z,7.32
2018-05-24T13:07:08.098Z,6.30
2018-05-24T13:08:13.053Z,7.05
2018-05-24T13:09:18.852Z,7.78
2018-05-24T13:10:23.772Z,6.72
2018-05-24T13:11:28.659Z,6.62
2018-05-24T13:12:33.754Z,7.25
2018-05-24T13:13:38.689Z,7.35
2018-05-24T13:14:43.862Z,8.63
2018-05-24T13:15:48.893Z,7.50
2018-05-24T13:16:53.866Z,7.72
2018-05-24T13:17:59.441Z,6.87
2018-05-24T13:19:04.472Z,8.27
2018-05-24T13:20:09.789Z,7.00
2018-05-24T13:21:14.627Z,7.87
2018-05-24T13:22:19.683Z,8.25
2018-05-24T13:23:24.947Z,6.47
2018-05-24T13:24:29.877Z,7.43
2018-05-24T13:25:35.012Z,7.80
2018-05-24T13:26:39.857Z,7.35
2018-05-24T13:27:44.611Z,7.30
2018-05-24T13:28:49.417Z,7.53
2018-05-24T13:29:54.204Z,7.87
2018-05-24T13:30:59.002Z,7.28
2018-05-24T13:32:03.827Z,8.63
2018-05-24T13:33:11.012Z,7.75
2018-05-24T13:34:15.824Z,7.20
2018-05-24T13:35:20.815Z,8.27
2018-05-24T13:36:26.659Z,7.75
2018-05-24T13:37:32.328Z,7.53
2018-05-24T13:38:37.054Z,7.80
2018-05-24T13:39:41.780Z,7.95
2018-05-24T13:40:47.484Z,8.98
2018-05-24T13:41:53.784Z,8.88
2018-05-24T13:42:58.910Z,7.72
2018-05-24T13:44:03.833Z,8.50
2018-05-24T13:45:09.000Z,8.10
2018-05-24T13:46:13.803Z,8.57
2018-05-24T13:47:18.594Z,7.85
2018-05-24T13:48:24.383Z,7.78
2018-05-24T13:49:30.821Z,8.20
2018-05-24T13:50:36.866Z,7.80
2018-05-24T13:51:41.827Z,8.07
2018-05-24T13:52:49.810Z,8.50
2018-05-24T13:53:58.688Z,8.25
2018-05-24T13:55:04.245Z,9.07
2018-05-24T13:56:09.975Z,8.23
2018-05-24T13:57:15.565Z,8.57
2018-05-24T13:58:22.118Z,8.20
2018-05-24T13:59:27.613Z,7.65
2018-05-24T14:00:32.417Z,8.60
2018-05-24T14:01:37.126Z,8.10
2018-05-24T14:02:41.874Z,9.13
2018-05-24T14:03:47.441Z,8.68
2018-05-24T14:04:54.684Z,9.00
2018-05-24T14:06:00.240Z,7.50
2018-05-24T14:07:05.732Z,9.20
2018-05-24T14:08:10.475Z,8.38
2018-05-24T14:09:15.197Z,7.80
2018-05-24T14:10:20.660Z,9.13
2018-05-24T14:11:26.288Z,8.35
2018-05-24T14:12:31.267Z,8.43
2018-05-24T14:13:36.379Z,8.27
2018-05-24T14:14:42.003Z,8.55
2018-05-24T14:15:46.712Z,8.65
2018-05-24T14:16:51.430Z,8.80
2018-05-24T14:17:56.160Z,8.05
2018-05-24T14:19:01.200Z,9.20
2018-05-24T14:20:06.690Z,8.23
2018-05-24T14:21:11.467Z,8.82
2018-05-24T14:22:16.209Z,8.68
2018-05-24T14:23:21.764Z,7.75
2018-05-24T14:24:26.975Z,9.18
2018-05-24T14:25:32.531Z,9.98
2018-05-24T14:26:37.276Z,8.65
2018-05-24T14:27:42.936Z,8.73
2018-05-24T14:28:47.665Z,8.25
2018-05-24T14:29:52.665Z,8.85
2018-05-24T14:30:58.190Z,9.57
2018-05-24T14:32:02.902Z,9.20
2018-05-24T14:33:07.783Z,8.68
2018-05-24T14:34:13.505Z,9.25
2018-05-24T14:35:19.499Z,8.55